AirNav   ProFlight Series 2 Aviation Headset
 
 1072 users online  

PN86 Goodwill Fire Company Heliport Nr 1
Minersville, Pennsylvania, USA

GOING TO MINERSVILLE?


FAA INFORMATION EFFECTIVE 18 JUNE 2020

Location

FAA Identifier: PN86
Lat/Long: 40-41-38.0000N 076-15-22.0000W
40-41.633333N 076-15.366667W
40.6938889,-76.2561111
(estimated)
Elevation: 710 ft. / 216 m (estimated)
Time zone: UTC -4 (UTC -5 during Standard Time)
Zip code: 17954

Heliport Operations

Heliport use: Private use. Permission required prior to landing
Activation date: 02/2007
Control tower: no
ARTCC: NEW YORK CENTER
FSS: WILLIAMSPORT FLIGHT SERVICE STATION
Attendance: UNATNDD
Wind indicator: yes
Segmented circle: no
Lights: ACTVT PERIMETER LGTS - 123.05.
Beacon: white-green-yellow (heliport)
ACTVT ROTG BCN - 123.05.

Heliport Communications

WX AWOS-3 at ZER (5 nm W): 127.575 (570-544-2778)
WX AWOS-3 at N79 (16 nm NW): 119.175 (570-672-0389)

Nearby radio navigation aids

VOR radial/distance  VOR name  Freq  Var
RAVr073/17.8RAVINE VORTAC114.6011W
ETXr294/26.9EAST TEXAS VOR/DME110.2009W
MIPr146/27.1MILTON VORTAC109.2009W
SEGr110/29.1SELINSGROVE VOR/DME110.4008W
LRPr012/34.5LANCASTER VOR/DME117.3009W
FJCr277/36.5ALLENTOWN VORTAC117.5010W

 
NDB name  Hdg/Dist  Freq  Var  ID
BELLGROVE051/20.632810WBZJ -... --.. .---

Heliport Services

Runway Information

Helipad H1

Dimensions: 40 x 40 ft. / 12 x 12 m
Surface: asphalt
Runway edge lights: PERI
Traffic pattern: leftleft

Heliport Ownership and Management from official FAA records

Ownership: Privately-owned
Owner: GOODWILL FIRE CO NO. 1
25 NORTH STREET
MINERSVILLE, PA 17954
Phone 570-544-6099
Manager: ALLEN REBER
25 NORTH STREET
MINERSVILLE, PA 17954
Phone 570-544-6099

Additional Remarks

FATO MARKED 70 FT BY 65 FT, NOT IN CENTER OF ASPHALT PAD.
SINGLE APCH/DEP HDGS 190/010
FOR CD CTC HARRISBURG APCH AT 800-932-0712.

Instrument Procedures

There are no published instrument procedures at PN86.

Some nearby airports with instrument procedures:

KZER - Schuylkill County/Joe Zerbey Airport (5 nm W)
N79 - Northumberland County Airport (16 nm NW)
74N - Bendigo Airport (16 nm SW)
N13 - Bloomsburg Municipal Airport (20 nm NW)
9D4 - Deck Airport (21 nm S)
 
Loc | Ops | Rwys | IFR | FBO | Links
Com | Nav | Svcs | Stats | Notes
Area around PN86 (Goodwill Fire Company Heliport Nr 1)
 
Road maps at: MapQuest Bing Google
 
Aerial photo
No photo
 
Sectional chart

 
Airport distance calculator
Flying to Goodwill Fire Company Heliport Nr 1? Find the distance to fly.

From to PN86

Sunrise and sunset
Times for 02-Jul-2020
 Local
(UTC-4)
 Zulu
(UTC)
Morning civil twilight05:0609:06
Sunrise05:4009:40
Sunset20:3900:39
Evening civil twilight21:1201:12

Current date and time
Zulu (UTC)  02-Jul-2020 22:50:40
Local (UTC-4)  02-Jul-2020 18:50:40
 
METAR
KHZL 
21nm NE 
022236Z AUTO 29003KT SCT070 29/15 A2992 RMK AO2 PWINO
KMUI 
22nm SW 
022156Z 30004KT 10SM FEW070 FEW100 SCT200 33/16 A2985 RMK AO2A SLP107 T03250163
K22N 
24nm E 
022236Z AUTO 00000KT 10SM CLR 31/18 A2983 RMK AO2
KRDG 
24nm SE 
022154Z AUTO 31011KT 10SM CLR 34/17 A2981 RMK AO2 SLP095 T03390167
KSEG 
29nm W 
022153Z AUTO 34009G14KT 10SM SCT110 33/16 A2985 RMK AO2 SLP103 T03280156
KLNS 
35nm S 
022153Z 31009KT 10SM FEW070 33/16 A2984 RMK AO2 SLP100 T03280161
KXLL 
36nm E 
022235Z AUTO 31005KT 10SM CLR 32/18 A2983 RMK AO2
KABE 
37nm E 
022151Z 35010KT 10SM CLR 32/16 A2981 RMK AO2 SLP091 T03170161
KMDT 
38nm SW 
022156Z 29009KT 10SM SCT070 SCT200 34/17 A2984 RMK AO2 SLP101 T03390167
KCXY 
39nm SW 
022156Z 36009KT 10SM CLR 34/14 A2985 RMK AO2 SLP105 T03440144
TAF
KMUI 
22nm SW 
021909Z 0219/0401 34009KT 9999 SCT060 QNH2986INS BECMG 0314/0315 33009KT 9999 FEW085 QNH2984INS BECMG 0400/0401 35006KT 9999 SCT050 BKN065 QNH2985INS TX31/0319Z TN21/0310Z LAST NO AMDS AFT 0305 NEXT 0611
KRDG 
24nm SE 
021720Z 0218/0318 34011KT P6SM SCT060 FM030200 VRB04KT P6SM SCT200 FM031500 31006KT P6SM SCT150
NOTAMs
Click for the latest NOTAMs
NOTAMs are issued by the DoD/FAA and will open in a separate window not controlled by AirNav.

 

 
 

Would you like to see your business listed on this page?

 If your business provides an interesting product or service to pilots, flight crews, aircraft, or users of the Goodwill Fire Company Heliport Nr 1, you should consider listing it here.  To start the listing process, click on the button below
 
Add a business
 

Other Pages about Goodwill Fire Company Heliport Nr 1

Update a link
 
Copyright © AirNav, LLC. All rights reserved. Privacy Policy  Contact